createdAt,value
2019-05-02T00:03:04.478Z,4.87
2019-05-02T00:07:06.937Z,5.00
2019-05-02T00:11:10.916Z,5.10
2019-05-02T00:15:17.401Z,4.90
2019-05-02T00:19:20.419Z,4.67
2019-05-02T00:23:27.927Z,5.30
2019-05-02T00:27:28.101Z,5.10
2019-05-02T00:31:31.065Z,5.07
2019-05-02T00:35:34.018Z,5.43
2019-05-02T00:39:37.041Z,5.40
2019-05-02T00:43:39.927Z,5.60
2019-05-02T00:47:50.498Z,5.90
2019-05-02T00:51:56.602Z,7.63
2019-05-02T00:55:58.221Z,7.40
2019-05-02T01:00:01.234Z,8.20
2019-05-02T01:04:10.819Z,8.60
2019-05-02T01:08:13.833Z,7.97
2019-05-02T01:12:26.110Z,9.17
2019-05-02T01:16:21.607Z,9.47
2019-05-02T01:20:27.530Z,10.13
2019-05-02T01:24:29.367Z,10.80
2019-05-02T01:28:40.487Z,10.70
2019-05-02T01:33:06.363Z,11.37
2019-05-02T01:37:20.682Z,10.20
2019-05-02T01:41:24.020Z,11.67
2019-05-02T01:45:25.237Z,12.20
2019-05-02T01:49:28.282Z,11.97
2019-05-02T01:53:34.408Z,12.57
2019-05-02T01:57:39.877Z,12.43
2019-05-02T02:01:42.216Z,13.00
2019-05-02T02:05:45.316Z,13.17
2019-05-02T02:09:48.241Z,12.43
2019-05-02T02:13:51.467Z,14.20
2019-05-02T02:17:54.568Z,15.03
2019-05-02T02:22:27.760Z,16.80
2019-05-02T02:26:30.777Z,17.27
2019-05-02T02:30:33.885Z,18.40
2019-05-02T02:34:36.804Z,18.70
2019-05-02T02:38:39.743Z,19.00
2019-05-02T02:42:42.708Z,17.30
2019-05-02T02:46:45.961Z,18.20
2019-05-02T02:50:50.017Z,17.87
2019-05-02T02:54:52.990Z,18.93
2019-05-02T02:58:56.046Z,20.20
2019-05-02T03:02:59.134Z,20.90
2019-05-02T03:07:02.087Z,19.83
2019-05-02T03:11:05.044Z,22.57
2019-05-02T03:15:11.753Z,23.00
2019-05-02T03:19:20.938Z,21.93
2019-05-02T03:23:24.245Z,23.40
2019-05-02T03:27:29.691Z,22.30
2019-05-02T03:31:32.255Z,22.53
2019-05-02T03:35:42.656Z,24.03
2019-05-02T03:39:41.305Z,23.23
2019-05-02T03:43:44.421Z,22.67
2019-05-02T03:47:49.504Z,22.57
2019-05-02T03:51:56.019Z,24.90
2019-05-02T03:56:10.656Z,25.10
2019-05-02T04:00:05.739Z,26.50
2019-05-02T04:04:14.064Z,26.90
2019-05-02T04:08:20.844Z,28.00
2019-05-02T04:12:21.979Z,24.53
2019-05-02T04:16:26.408Z,25.53
2019-05-02T04:20:29.772Z,26.67
2019-05-02T04:24:32.982Z,25.07
2019-05-02T04:28:36.380Z,25.67
2019-05-02T04:32:42.744Z,24.23
2019-05-02T04:36:46.702Z,25.40
2019-05-02T04:40:49.566Z,24.43
2019-05-02T04:45:12.027Z,24.40
2019-05-02T04:48:58.899Z,26.40
2019-05-02T04:53:08.371Z,25.07
2019-05-02T04:57:10.780Z,24.10
2019-05-02T05:01:17.428Z,24.03
2019-05-02T05:05:25.827Z,25.07
2019-05-02T05:09:27.748Z,22.37
2019-05-02T05:13:29.916Z,20.97
2019-05-02T05:17:34.198Z,21.60
2019-05-02T05:21:39.253Z,22.00
2019-05-02T05:25:50.561Z,21.37
2019-05-02T05:29:53.710Z,21.07
2019-05-02T05:33:59.098Z,22.10
2019-05-02T05:38:02.097Z,22.07
2019-05-02T05:42:05.180Z,20.20
2019-05-02T05:46:13.047Z,20.47
2019-05-02T05:50:17.665Z,20.43
2019-05-02T05:54:20.749Z,20.80
2019-05-02T05:58:23.904Z,20.13
2019-05-02T06:02:28.396Z,18.93
2019-05-02T06:06:31.526Z,18.37
2019-05-02T06:10:34.566Z,17.30
2019-05-02T06:14:39.273Z,17.97
2019-05-02T06:18:43.692Z,17.73
2019-05-02T06:22:46.814Z,18.33
2019-05-02T06:26:51.734Z,17.60
2019-05-02T06:30:54.720Z,17.33
2019-05-02T06:34:57.652Z,18.37
2019-05-02T06:39:00.637Z,16.80
2019-05-02T06:43:04.382Z,17.47
2019-05-02T06:47:08.386Z,15.83
2019-05-02T06:51:19.510Z,16.80
2019-05-02T06:55:16.529Z,16.57
2019-05-02T06:59:20.348Z,16.50
2019-05-02T07:03:23.411Z,15.93
2019-05-02T07:07:31.391Z,16.30
2019-05-02T07:11:40.624Z,15.60
2019-05-02T07:16:16.205Z,15.87
2019-05-02T07:20:16.912Z,15.70
2019-05-02T07:24:20.028Z,15.50
2019-05-02T07:28:24.147Z,13.70
2019-05-02T07:32:28.211Z,15.50
2019-05-02T07:36:36.117Z,14.77
2019-05-02T07:40:36.054Z,15.23
2019-05-02T07:44:39.108Z,14.80
2019-05-02T07:48:43.664Z,13.30
2019-05-02T07:52:46.950Z,13.40
2019-05-02T07:56:53.347Z,14.63
2019-05-02T08:00:54.727Z,15.40
2019-05-02T08:04:57.668Z,16.20
2019-05-02T08:09:01.640Z,13.47
2019-05-02T08:13:05.695Z,12.37
2019-05-02T08:17:16.076Z,13.07
2019-05-02T08:21:13.624Z,14.47
2019-05-02T08:25:16.871Z,15.90
2019-05-02T08:29:23.411Z,19.57
2019-05-02T08:33:29.319Z,18.87
2019-05-02T08:37:29.721Z,18.00
2019-05-02T08:41:32.898Z,19.07
2019-05-02T08:45:38.299Z,19.03
2019-05-02T08:49:42.491Z,17.73
2019-05-02T08:53:45.410Z,16.90
2019-05-02T08:57:48.575Z,17.27
2019-05-02T09:01:51.583Z,19.83
2019-05-02T09:06:05.657Z,19.77
2019-05-02T09:10:05.798Z,22.27
2019-05-02T09:14:05.724Z,19.77
2019-05-02T09:18:08.671Z,21.20
2019-05-02T09:22:16.792Z,19.07
2019-05-02T09:26:34.655Z,20.13
2019-05-02T09:30:25.985Z,17.80
2019-05-02T09:34:29.379Z,21.00
2019-05-02T09:38:32.870Z,20.10
2019-05-02T09:42:35.982Z,17.33
2019-05-02T09:46:39.152Z,17.80
2019-05-02T09:50:42.327Z,15.80
2019-05-02T09:54:46.206Z,15.87
2019-05-02T09:58:49.462Z,15.37
2019-05-02T10:02:52.754Z,15.40
2019-05-02T10:06:55.887Z,18.90
2019-05-02T10:11:06.653Z,20.53
2019-05-02T10:15:12.949Z,18.93
2019-05-02T10:19:17.219Z,20.03
2019-05-02T10:23:23.393Z,21.33
2019-05-02T10:27:26.716Z,20.77
2019-05-02T10:31:35.788Z,19.67
2019-05-02T10:35:40.752Z,18.67
2019-05-02T10:39:42.763Z,15.83
2019-05-02T10:43:46.872Z,16.30
2019-05-02T10:47:52.688Z,16.43
2019-05-02T10:51:55.915Z,17.70
2019-05-02T10:55:59.029Z,20.17
2019-05-02T11:00:03.210Z,20.40
2019-05-02T11:04:08.605Z,21.10
2019-05-02T11:08:12.033Z,19.20
2019-05-02T11:12:23.890Z,19.40
2019-05-02T11:16:38.219Z,18.80
2019-05-02T11:20:42.091Z,17.33
2019-05-02T11:24:45.206Z,16.90
2019-05-02T11:28:48.347Z,18.33
2019-05-02T11:32:52.144Z,19.30
2019-05-02T11:36:55.129Z,22.80
2019-05-02T11:40:59.122Z,22.80
2019-05-02T11:45:02.687Z,20.70
2019-05-02T11:49:05.800Z,20.13
2019-05-02T11:53:22.280Z,18.37
2019-05-02T11:57:13.863Z,20.33
2019-05-02T12:01:20.187Z,19.03
2019-05-02T12:05:26.589Z,17.77
2019-05-02T12:09:31.810Z,17.80
2019-05-02T12:13:34.828Z,16.63
2019-05-02T12:17:37.825Z,17.60
2019-05-02T12:21:42.545Z,17.17
2019-05-02T12:25:45.643Z,19.77
2019-05-02T12:29:50.214Z,18.50
2019-05-02T12:33:53.733Z,18.23
2019-05-02T12:37:56.767Z,17.60
2019-05-02T12:41:59.943Z,18.63
2019-05-02T12:46:03.106Z,16.70
2019-05-02T12:50:06.413Z,19.40
2019-05-02T12:54:12.226Z,20.10
2019-05-02T12:58:15.335Z,20.00
2019-05-02T13:02:27.330Z,21.70
2019-05-02T13:06:30.247Z,21.83
2019-05-02T13:11:01.900Z,20.50
2019-05-02T13:14:59.047Z,18.80
2019-05-02T13:19:05.916Z,18.53
2019-05-02T13:23:27.246Z,17.50
2019-05-02T13:27:43.341Z,17.57
2019-05-02T13:31:44.045Z,18.73
2019-05-02T13:35:53.197Z,18.13
2019-05-02T13:40:08.322Z,15.43
2019-05-02T13:44:13.224Z,15.60
2019-05-02T13:48:16.101Z,15.37
2019-05-02T13:52:19.177Z,14.20
2019-05-02T13:56:47.048Z,14.13
2019-05-02T14:00:52.881Z,10.27
2019-05-02T14:04:55.906Z,9.97
2019-05-02T14:09:19.989Z,8.30
2019-05-02T14:13:23.258Z,7.97
2019-05-02T14:17:26.249Z,8.20
2019-05-02T14:21:29.199Z,6.57
2019-05-02T14:25:32.350Z,6.47
2019-05-02T14:29:35.310Z,7.10
2019-05-02T14:33:42.211Z,6.17
2019-05-02T14:37:45.335Z,7.20
2019-05-02T14:41:52.453Z,6.93
2019-05-02T14:45:57.627Z,7.00
2019-05-02T14:50:02.274Z,6.27
2019-05-02T14:54:07.944Z,6.47
2019-05-02T14:58:07.867Z,5.83
2019-05-02T15:02:32.095Z,6.20
2019-05-02T15:06:38.224Z,5.47
2019-05-02T15:10:50.760Z,5.90
2019-05-02T15:14:43.686Z,5.00
2019-05-02T15:18:47.637Z,6.63
2019-05-02T15:22:52.344Z,5.90
2019-05-02T15:26:55.418Z,6.17
2019-05-02T15:31:07.584Z,6.93
2019-05-02T15:35:47.832Z,5.30
2019-05-02T15:43:56.703Z,5.70
2019-05-02T15:47:59.781Z,5.87
2019-05-02T15:52:04.583Z,6.87
2019-05-02T15:56:15.766Z,6.13
2019-05-02T16:00:23.095Z,6.90
2019-05-02T16:04:28.176Z,6.33
2019-05-02T16:08:33.034Z,6.40
2019-05-02T16:12:36.600Z,5.73
2019-05-02T16:16:43.603Z,6.50
2019-05-02T16:21:06.933Z,7.43
2019-05-02T16:25:05.050Z,5.03
2019-05-02T16:29:10.929Z,2.47
2019-05-02T16:33:17.357Z,2.50
2019-05-02T16:37:17.801Z,1.90
2019-05-02T16:41:21.775Z,1.60
2019-05-02T16:45:26.889Z,2.00
2019-05-02T16:49:32.146Z,1.90
2019-05-02T16:53:35.009Z,1.47
2019-05-02T16:57:38.016Z,1.70
2019-05-02T17:01:42.509Z,1.67
2019-05-02T17:05:48.031Z,1.53
2019-05-02T17:10:21.939Z,1.50
2019-05-02T17:14:25.051Z,2.40
2019-05-02T17:18:28.787Z,2.33
2019-05-02T17:22:32.325Z,2.90
2019-05-02T17:26:37.653Z,3.50
2019-05-02T17:30:43.701Z,2.90
2019-05-02T17:34:46.727Z,2.60
2019-05-02T17:38:52.003Z,3.90
2019-05-02T17:42:57.196Z,2.77
2019-05-02T17:47:01.668Z,2.83
2019-05-02T17:51:13.696Z,2.50
2019-05-02T17:55:18.609Z,3.00
2019-05-02T17:59:21.654Z,3.20
2019-05-02T18:03:31.102Z,3.13
2019-05-02T18:07:34.201Z,3.10
2019-05-02T18:11:37.725Z,2.90
2019-05-02T18:15:39.118Z,3.00
2019-05-02T18:19:45.161Z,3.13
2019-05-02T18:23:48.109Z,3.63
2019-05-02T18:27:52.158Z,3.57
2019-05-02T18:31:55.424Z,3.77
2019-05-02T18:35:58.485Z,4.80
2019-05-02T18:40:03.070Z,3.87
2019-05-02T18:44:06.459Z,3.93
2019-05-02T18:48:09.451Z,3.60
2019-05-02T18:52:12.452Z,3.50
2019-05-02T18:56:15.572Z,3.57
2019-05-02T19:00:18.925Z,3.87
2019-05-02T19:04:25.114Z,2.70
2019-05-02T19:08:32.196Z,3.80
2019-05-02T19:12:34.373Z,3.67
2019-05-02T19:16:37.859Z,3.77
2019-05-02T19:21:02.788Z,3.37
2019-05-02T19:25:05.349Z,3.73
2019-05-02T19:29:32.184Z,3.57
2019-05-02T19:33:37.433Z,3.80
2019-05-02T19:37:46.625Z,4.53
2019-05-02T19:41:47.472Z,3.53
2019-05-02T19:45:53.894Z,4.00
2019-05-02T19:49:56.865Z,3.43
2019-05-02T19:54:03.623Z,3.90
2019-05-02T19:58:06.663Z,2.87
2019-05-02T20:02:11.790Z,2.97
2019-05-02T20:06:14.802Z,3.30
2019-05-02T20:10:19.307Z,2.33
2019-05-02T20:14:22.753Z,3.00
2019-05-02T20:18:28.097Z,2.57
2019-05-02T20:22:31.660Z,3.90
2019-05-02T20:26:34.633Z,2.60
2019-05-02T20:30:38.914Z,2.90
2019-05-02T20:34:42.006Z,2.63
2019-05-02T20:38:46.808Z,3.07
2019-05-02T20:42:49.794Z,2.70
2019-05-02T20:46:54.197Z,2.37
2019-05-02T20:50:57.165Z,3.03
2019-05-02T20:55:01.897Z,2.20
2019-05-02T20:59:07.993Z,2.83
2019-05-02T21:03:11.938Z,2.73
2019-05-02T21:07:47.040Z,2.67
2019-05-02T21:11:53.792Z,2.37
2019-05-02T21:15:57.064Z,2.30
2019-05-02T21:20:01.879Z,2.40
2019-05-02T21:24:04.835Z,2.53
2019-05-02T21:28:32.168Z,2.30
2019-05-02T21:32:35.247Z,2.23
2019-05-02T21:36:38.312Z,2.33
2019-05-02T21:40:42.326Z,1.90
2019-05-02T21:44:45.421Z,1.93
2019-05-02T21:48:49.838Z,1.90
2019-05-02T21:53:18.244Z,2.10
2019-05-02T21:57:22.688Z,1.90
2019-05-02T22:01:26.113Z,2.47
2019-05-02T22:05:29.093Z,2.53
2019-05-02T22:09:32.437Z,2.23
2019-05-02T22:13:37.392Z,1.90
2019-05-02T22:17:41.604Z,2.30
2019-05-02T22:21:44.821Z,2.37
2019-05-02T22:25:47.785Z,2.00
2019-05-02T22:29:52.373Z,2.27
2019-05-02T22:33:55.600Z,1.50
2019-05-02T22:38:06.301Z,2.00
2019-05-02T22:42:09.485Z,2.03
2019-05-02T22:46:14.606Z,2.20
2019-05-02T22:50:17.750Z,1.80
2019-05-02T22:54:29.962Z,2.50
2019-05-02T22:58:32.559Z,2.67
2019-05-02T23:02:38.864Z,2.10
2019-05-02T23:06:43.993Z,2.10
2019-05-02T23:10:46.695Z,2.30
2019-05-02T23:14:49.672Z,2.23
2019-05-02T23:18:53.365Z,2.53
2019-05-02T23:22:56.304Z,2.40
2019-05-02T23:27:32.154Z,2.33
2019-05-02T23:31:35.141Z,2.07
2019-05-02T23:35:38.228Z,2.33
2019-05-02T23:39:44.324Z,2.53
2019-05-02T23:43:49.150Z,2.30
2019-05-02T23:47:52.983Z,2.50
2019-05-02T23:51:55.958Z,1.90
2019-05-02T23:55:58.926Z,2.63
